Crewe, VA

3:51 PM EDT on July 30, 2016 (GMT -0400)
Almost West End | | Change Station

Elev 465 ft 37.18 °N, 78.13 °W | Updated 1 second ago

Scattered Clouds
Scattered Clouds
81.9 °F
Feels Like 90 °F
N
1.0
Wind Variable Wind from East
Gusts 3.0 mph

Today
High -- | Low -- °F
--% Chance of Precip.
Yesterday
High -- | Low -- °F
Precip. -- in
Pressure 29.93 in
Visibility 10.0 miles
Clouds Scattered Clouds 5500 ft
Scattered Clouds 9000 ft
Heat Index 90 °F
Dew Point 77 °F
Humidity 86%
Rainfall 0.04 in
Snow Depth Not available.
6:16 AM 8:21 PM
Waning Crescent, 11% visible
METAR KFVX 301935Z AUTO 11004KT 10SM SCT055 SCT090 27/24 A2993 RMK AO2 LTG DSNT SE T02700244
Pressure 29.93 in
Visibility 10.0 miles
Clouds Scattered Clouds 5500 ft
Scattered Clouds 9000 ft
Heat Index 90 °F
Dew Point 77 °F
Humidity 86%
Rainfall 0.04 in
Snow Depth Not available.
6:16 AM 8:21 PM
Waning Crescent, 11% visible
METAR KFVX 301935Z AUTO 11004KT 10SM SCT055 SCT090 27/24 A2993 RMK AO2 LTG DSNT SE T02700244

10-Day Weather Forecast

Almanac

Astronomy

Jul. 30, 2016 Rise Set
Actual Time
Civil Twilight
Nautical Twilight
Astronomical Twilight
Moon
Length of Visible Light
Length of Day
Tomorrow will be .
, % of the Moon is Illuminated

Today's Extremes

State Highs State Lows

Community

WunderPhotos

Upload Photos

1,928,628 photos uploaded!

WunderBlog® & News

Nearby

Air Quality

  Air Quality AQ Index Pollutant
Not available.

Snow Depth

Station Depth Elevation

Earthquake Activity

City Distance Mag. Time & Date
Minimum magnitude displayed is 2.5.

Coastal Water Temperatures

Place Temperature

Stations

Nearby Weather Stations

Station Location Temp. Windchill Dew Point Humidity Wind Precip. Elev Updated Type
                   

Watches & Warnings

There are currently no watches in effect.